Time;durP1;ratioP1;P1;durP2;ratioP2;P2;SDS_P1;SDS_P2;PMS_P1;PMS_P2;Temp;Humidity;BMP_temperature;BMP_pressure;BME280_temperature;BME280_humidity;BME280_pressure;Samples;Min_cycle;Max_cycle;Signal;HPM_P1;HPM_P2
2024/01/11 00:00:14;;;;;;;23.53;15.47;;;-6.10;72.80;;;;;;6249435;28;20248;-80
2024/01/11 00:03:20;;;;;;;21.30;15.50;;;-6.20;73.10;;;;;;6252428;28;20796;-81
2024/01/11 00:06:23;;;;;;;20.03;15.57;;;-6.20;73.40;;;;;;6244594;28;20231;-80
2024/01/11 00:09:26;;;;;;;20.43;14.70;;;-6.20;73.40;;;;;;6246647;28;20248;-80
2024/01/11 00:12:31;;;;;;;20.93;14.83;;;-6.30;73.50;;;;;;6250863;28;20242;-80
2024/01/11 00:15:34;;;;;;;18.00;14.47;;;-6.30;73.60;;;;;;6253682;28;20234;-80
2024/01/11 00:18:37;;;;;;;15.73;12.93;;;-6.30;73.90;;;;;;6251972;28;20242;-81
2024/01/11 00:21:41;;;;;;;17.93;11.83;;;-6.20;73.70;;;;;;6252521;28;20809;-78
2024/01/11 00:24:44;;;;;;;12.70;11.03;;;-6.40;73.90;;;;;;6260934;28;20242;-79
2024/01/11 00:27:49;;;;;;;11.37;10.17;;;-6.50;74.20;;;;;;6227930;28;20781;-79
2024/01/11 00:30:52;;;;;;;11.40;10.20;;;-6.50;74.50;;;;;;6254151;28;20238;-79
2024/01/11 00:33:55;;;;;;;11.67;10.37;;;-6.60;74.50;;;;;;6260441;28;20868;-79
2024/01/11 00:36:59;;;;;;;11.13;9.90;;;-6.60;74.70;;;;;;6251797;28;21171;-80
2024/01/11 00:40:08;;;;;;;10.57;9.53;;;-6.60;74.90;;;;;;6251034;28;20230;-78
2024/01/11 00:43:12;;;;;;;11.13;10.03;;;-6.60;75.00;;;;;;6243850;28;20238;-79
2024/01/11 00:46:15;;;;;;;11.87;10.50;;;-6.70;75.00;;;;;;6245817;28;20718;-80
2024/01/11 00:49:19;;;;;;;15.03;12.30;;;-6.70;75.00;;;;;;6245062;28;20227;-80
2024/01/11 00:52:22;;;;;;;15.83;13.07;;;-6.80;75.90;;;;;;6241836;28;20233;-80
2024/01/11 00:55:25;;;;;;;15.10;12.67;;;-6.80;75.80;;;;;;6240715;28;20296;-78
2024/01/11 00:58:30;;;;;;;14.57;11.90;;;-6.70;75.70;;;;;;6245518;28;20245;-79
2024/01/11 01:01:33;;;;;;;12.27;11.03;;;-6.70;75.80;;;;;;6249853;28;20315;-80
2024/01/11 01:04:39;;;;;;;13.13;11.40;;;-6.70;75.70;;;;;;6260291;28;20241;-79
2024/01/11 01:07:42;;;;;;;12.73;11.43;;;-6.70;75.70;;;;;;6248290;28;20238;-80
2024/01/11 01:10:45;;;;;;;13.67;11.67;;;-6.70;76.00;;;;;;6257663;28;20247;-81
2024/01/11 01:13:50;;;;;;;14.47;11.30;;;-6.80;76.40;;;;;;6252206;28;20242;-80
2024/01/11 01:16:53;;;;;;;14.60;12.33;;;-6.70;76.50;;;;;;6253635;28;20248;-80
2024/01/11 01:19:56;;;;;;;13.70;11.93;;;-6.70;76.30;;;;;;6246642;28;20713;-78
2024/01/11 01:22:59;;;;;;;12.90;11.47;;;-6.70;76.30;;;;;;6250975;28;20311;-79
2024/01/11 01:26:03;;;;;;;19.13;13.10;;;-6.70;76.40;;;;;;6244094;28;20299;-80
2024/01/11 01:29:10;;;;;;;17.57;11.17;;;-6.80;76.40;;;;;;6241694;28;20311;-78
2024/01/11 01:32:14;;;;;;;16.90;11.43;;;-6.80;76.40;;;;;;6237906;28;20230;-78
2024/01/11 01:35:17;;;;;;;17.27;12.57;;;-6.90;76.70;;;;;;6256291;28;20321;-80
2024/01/11 01:38:20;;;;;;;13.37;11.47;;;-6.90;76.80;;;;;;6258743;28;20230;-79
2024/01/11 01:41:23;;;;;;;13.73;11.73;;;-6.90;76.90;;;;;;6257339;28;20257;-80
2024/01/11 01:44:28;;;;;;;14.63;12.93;;;-6.90;76.90;;;;;;6244740;28;20234;-79
2024/01/11 01:47:32;;;;;;;16.43;12.30;;;-7.00;76.90;;;;;;6246767;28;20261;-80
2024/01/11 01:50:35;;;;;;;20.73;12.47;;;-7.10;77.30;;;;;;6242050;28;20241;-79
2024/01/11 01:53:38;;;;;;;16.63;12.33;;;-7.10;77.40;;;;;;6242381;28;20238;-79
2024/01/11 01:56:42;;;;;;;16.77;11.60;;;-7.10;77.60;;;;;;6248465;28;20708;-78
2024/01/11 01:59:52;;;;;;;13.10;10.80;;;-7.10;77.70;;;;;;6252984;28;20728;-78
2024/01/11 02:02:57;;;;;;;15.30;10.83;;;-6.90;77.90;;;;;;6261013;28;20337;-80
2024/01/11 02:06:01;;;;;;;13.80;10.50;;;-6.90;77.90;;;;;;6260852;28;20327;-80
2024/01/11 02:09:05;;;;;;;13.63;10.97;;;-6.80;77.90;;;;;;6249011;28;20250;-80
2024/01/11 02:12:10;;;;;;;12.10;10.90;;;-6.90;77.80;;;;;;6253825;28;20237;-80
2024/01/11 02:15:15;;;;;;;23.13;12.27;;;-6.90;77.80;;;;;;6258149;28;20317;-79
2024/01/11 02:18:18;;;;;;;14.90;10.60;;;-6.90;78.00;;;;;;6252542;28;20241;-80
2024/01/11 02:21:24;;;;;;;13.97;10.97;;;-6.80;78.00;;;;;;6266534;28;20449;-80
2024/01/11 02:24:29;;;;;;;14.17;10.80;;;-6.80;78.00;;;;;;6265879;28;20972;-79
2024/01/11 02:27:32;;;;;;;16.47;12.07;;;-6.70;77.60;;;;;;6257082;28;20861;-81
2024/01/11 02:30:35;;;;;;;16.77;11.43;;;-6.70;78.00;;;;;;6259031;28;20321;-81
2024/01/11 02:33:41;;;;;;;18.70;11.87;;;-6.70;78.20;;;;;;6252150;28;20229;-78
2024/01/11 02:36:45;;;;;;;21.03;11.30;;;-6.70;78.40;;;;;;6257043;28;20265;-77
2024/01/11 02:39:49;;;;;;;18.53;12.53;;;-6.70;78.70;;;;;;6254353;28;20230;-82
2024/01/11 02:42:52;;;;;;;21.47;12.70;;;-6.60;78.70;;;;;;6257867;28;20234;-80
2024/01/11 02:45:58;;;;;;;19.90;11.73;;;-6.60;78.80;;;;;;6252354;28;20253;-80
2024/01/11 02:49:01;;;;;;;16.33;12.13;;;-6.60;79.10;;;;;;6248120;28;20248;-80
2024/01/11 02:52:06;;;;;;;18.30;11.17;;;-6.70;79.50;;;;;;6248167;28;20364;-81
2024/01/11 02:55:11;;;;;;;18.13;12.17;;;-6.60;79.80;;;;;;6247670;28;20246;-81
2024/01/11 02:58:14;;;;;;;19.47;12.70;;;-6.70;79.80;;;;;;6260363;28;20297;-80
2024/01/11 03:01:17;;;;;;;18.87;12.33;;;-6.60;80.10;;;;;;6255376;28;20361;-80
2024/01/11 03:04:20;;;;;;;16.73;11.70;;;-6.60;80.10;;;;;;6252199;28;20279;-78
2024/01/11 03:07:26;;;;;;;17.73;11.67;;;-6.70;79.90;;;;;;6258565;28;20245;-78
2024/01/11 03:10:31;;;;;;;20.30;12.23;;;-6.60;79.60;;;;;;6246251;28;20234;-80
2024/01/11 03:13:34;;;;;;;16.80;12.10;;;-6.60;79.50;;;;;;6250159;28;20234;-78
2024/01/11 03:16:39;;;;;;;17.33;11.63;;;-6.60;79.60;;;;;;6254411;28;20874;-79
2024/01/11 03:19:42;;;;;;;17.40;12.37;;;-6.60;79.40;;;;;;6254424;28;20230;-78
2024/01/11 03:22:50;;;;;;;14.80;11.40;;;-6.70;79.30;;;;;;6259828;28;20898;-79
2024/01/11 03:25:54;;;;;;;16.47;10.83;;;-6.70;79.60;;;;;;6256629;28;20854;-79
2024/01/11 03:28:57;;;;;;;17.03;11.90;;;-6.70;79.40;;;;;;6253448;28;20241;-80
2024/01/11 03:32:00;;;;;;;18.73;12.20;;;-6.70;79.20;;;;;;6254552;28;20336;-78
2024/01/11 03:35:07;;;;;;;16.73;11.93;;;-6.70;79.10;;;;;;6256438;28;20242;-80
2024/01/11 03:38:10;;;;;;;25.33;13.00;;;-6.70;79.30;;;;;;6262301;28;20238;-78
2024/01/11 03:41:14;;;;;;;17.37;11.40;;;-6.70;79.60;;;;;;6256416;28;20245;-81
2024/01/11 03:44:18;;;;;;;16.00;10.53;;;-6.70;79.70;;;;;;6231538;28;20317;-81
2024/01/11 03:47:21;;;;;;;17.60;11.37;;;-6.70;79.90;;;;;;6251998;28;20234;-80
2024/01/11 03:50:24;;;;;;;15.70;10.23;;;-6.80;80.20;;;;;;6245157;28;20250;-79
2024/01/11 03:53:27;;;;;;;14.87;10.57;;;-6.70;80.40;;;;;;6254149;28;20232;-79
2024/01/11 03:56:32;;;;;;;12.53;10.43;;;-6.70;80.40;;;;;;6259178;28;20361;-82
2024/01/11 03:59:35;;;;;;;15.00;10.93;;;-6.70;80.30;;;;;;6242744;28;20242;-79
2024/01/11 04:02:38;;;;;;;14.93;10.67;;;-6.70;80.40;;;;;;6242493;28;20240;-80
2024/01/11 04:05:42;;;;;;;17.53;11.67;;;-6.60;80.60;;;;;;6248723;28;20703;-79
2024/01/11 04:08:45;;;;;;;12.90;9.80;;;-6.60;80.80;;;;;;6242330;28;20376;-79
2024/01/11 04:11:50;;;;;;;13.40;9.93;;;-6.50;81.00;;;;;;6253718;28;20230;-80
2024/01/11 04:14:53;;;;;;;15.13;10.33;;;-6.50;81.10;;;;;;6240605;28;20238;-79
2024/01/11 04:17:56;;;;;;;18.13;10.87;;;-6.40;81.20;;;;;;6252266;28;20327;-81
2024/01/11 04:21:00;;;;;;;19.57;11.20;;;-6.30;81.30;;;;;;6238161;28;20250;-78
2024/01/11 04:24:03;;;;;;;14.73;10.50;;;-6.30;81.40;;;;;;6249388;28;20237;-79
2024/01/11 04:27:07;;;;;;;17.77;11.30;;;-6.30;81.80;;;;;;6237273;28;20420;-80
2024/01/11 04:30:11;;;;;;;20.60;12.07;;;-6.20;82.00;;;;;;6253378;28;20261;-80
2024/01/11 04:33:14;;;;;;;18.73;11.80;;;-6.20;82.30;;;;;;6250895;28;20237;-78
2024/01/11 04:36:18;;;;;;;19.90;11.87;;;-6.10;82.30;;;;;;6248852;28;20241;-81
2024/01/11 04:39:21;;;;;;;22.53;12.17;;;-6.00;82.50;;;;;;6248824;28;20320;-79
2024/01/11 04:42:25;;;;;;;23.00;12.90;;;-6.00;82.80;;;;;;6254561;28;20724;-80
2024/01/11 04:45:28;;;;;;;28.93;13.50;;;-5.80;82.80;;;;;;6246311;28;20276;-80
2024/01/11 04:48:31;;;;;;;25.17;12.83;;;-5.70;82.90;;;;;;6246509;28;20268;-76
2024/01/11 04:51:35;;;;;;;31.33;12.80;;;-5.70;83.00;;;;;;6250308;28;20809;-81
2024/01/11 04:54:38;;;;;;;34.27;13.10;;;-5.60;83.20;;;;;;6252872;28;20238;-80
2024/01/11 04:57:42;;;;;;;33.63;14.07;;;-5.40;83.20;;;;;;6251038;28;20306;-79
2024/01/11 05:00:46;;;;;;;25.43;14.13;;;-5.40;83.10;;;;;;6248348;28;20245;-81
2024/01/11 05:03:50;;;;;;;36.23;14.00;;;-5.40;83.20;;;;;;6256520;28;20722;-80
2024/01/11 05:06:53;;;;;;;28.87;14.17;;;-5.30;83.20;;;;;;6265376;28;20229;-79
2024/01/11 05:09:56;;;;;;;26.13;13.53;;;-5.30;83.50;;;;;;6256697;28;20241;-79
2024/01/11 05:13:01;;;;;;;25.03;13.00;;;-5.20;83.50;;;;;;6249996;28;20254;-79
2024/01/11 05:16:04;;;;;;;35.03;14.37;;;-5.20;83.60;;;;;;6251707;28;20666;-81
2024/01/11 05:19:07;;;;;;;26.47;13.10;;;-5.10;83.70;;;;;;6242607;28;20234;-79
2024/01/11 05:22:10;;;;;;;32.33;14.60;;;-5.10;83.60;;;;;;6258335;28;20231;-79
2024/01/11 05:25:14;;;;;;;29.07;13.97;;;-5.00;83.70;;;;;;6261237;28;20269;-79
2024/01/11 05:28:18;;;;;;;35.27;14.47;;;-5.00;83.90;;;;;;6248953;28;20242;-79
2024/01/11 05:31:22;;;;;;;35.97;14.23;;;-4.90;83.80;;;;;;6264501;28;20237;-79
2024/01/11 05:34:25;;;;;;;32.93;14.23;;;-4.80;83.70;;;;;;6261063;28;20391;-79
2024/01/11 05:37:28;;;;;;;29.90;14.23;;;-4.70;83.80;;;;;;6260016;28;20238;-78
2024/01/11 05:40:31;;;;;;;28.40;13.37;;;-4.70;83.90;;;;;;6263238;28;20733;-77
2024/01/11 05:43:36;;;;;;;35.13;15.87;;;-4.60;83.90;;;;;;6246412;28;20262;-80
2024/01/11 05:46:39;;;;;;;30.77;14.93;;;-4.60;83.90;;;;;;6259986;28;20268;-79
2024/01/11 05:49:42;;;;;;;35.43;14.33;;;-4.60;83.90;;;;;;6256669;28;20321;-79
2024/01/11 05:52:45;;;;;;;29.43;14.97;;;-4.60;83.90;;;;;;6241286;28;20658;-78
2024/01/11 05:55:48;;;;;;;31.57;14.83;;;-4.50;84.00;;;;;;6265108;28;20262;-79
2024/01/11 05:58:55;;;;;;;35.00;15.20;;;-4.40;83.90;;;;;;6256288;28;20318;-78
2024/01/11 06:02:00;;;;;;;29.50;14.07;;;-4.40;83.90;;;;;;6263858;28;20271;-79
2024/01/11 06:05:04;;;;;;;36.67;16.03;;;-4.30;84.00;;;;;;6259867;28;20372;-78
2024/01/11 06:08:07;;;;;;;55.27;16.47;;;-4.40;83.90;;;;;;6260158;28;20239;-77
2024/01/11 06:11:10;;;;;;;34.57;15.67;;;-4.30;84.10;;;;;;6262935;28;20368;-79
2024/01/11 06:14:15;;;;;;;36.17;15.83;;;-4.30;84.10;;;;;;6263610;28;20238;-77
2024/01/11 06:17:18;;;;;;;33.47;15.43;;;-4.20;84.00;;;;;;6262410;28;20245;-79
2024/01/11 06:20:21;;;;;;;39.83;16.17;;;-4.10;83.90;;;;;;6270594;28;20234;-77
2024/01/11 06:23:26;;;;;;;33.10;15.20;;;-4.00;83.70;;;;;;6265283;28;20842;-77
2024/01/11 06:26:30;;;;;;;35.13;16.23;;;-4.00;83.60;;;;;;6248471;28;20245;-79
2024/01/11 06:29:34;;;;;;;40.83;16.13;;;-4.00;83.60;;;;;;6266491;28;20341;-78
2024/01/11 06:32:37;;;;;;;35.13;15.33;;;-4.00;83.60;;;;;;6264937;28;20376;-78
2024/01/11 06:35:41;;;;;;;32.20;16.13;;;-4.00;83.90;;;;;;6266727;28;20234;-76
2024/01/11 06:38:44;;;;;;;43.10;16.60;;;-4.00;83.70;;;;;;6264591;28;20237;-74
2024/01/11 06:41:47;;;;;;;43.20;17.43;;;-4.00;83.70;;;;;;6251127;28;20226;-77
2024/01/11 06:44:52;;;;;;;35.83;15.97;;;-4.00;83.60;;;;;;6262592;28;20249;-75
2024/01/11 06:47:56;;;;;;;36.97;17.90;;;-4.00;83.90;;;;;;6246583;28;20234;-78
2024/01/11 06:51:00;;;;;;;42.40;18.43;;;-4.00;83.90;;;;;;6258776;28;20253;-78
2024/01/11 06:54:04;;;;;;;53.30;17.63;;;-3.90;83.90;;;;;;6259207;28;20253;-77
2024/01/11 06:57:08;;;;;;;46.80;17.80;;;-4.00;83.90;;;;;;6266888;28;21520;-77
2024/01/11 07:00:13;;;;;;;40.73;17.07;;;-4.00;83.90;;;;;;6268688;28;20261;-77
2024/01/11 07:03:17;;;;;;;38.70;17.37;;;-3.90;84.10;;;;;;6268270;28;20272;-77
2024/01/11 07:06:20;;;;;;;39.70;17.57;;;-3.80;83.90;;;;;;6270017;28;20244;-77
2024/01/11 07:09:25;;;;;;;43.17;18.07;;;-3.80;83.90;;;;;;6262016;28;20256;-77
2024/01/11 07:12:28;;;;;;;41.73;18.47;;;-3.80;83.90;;;;;;6268091;28;20256;-78
2024/01/11 07:15:32;;;;;;;43.33;17.93;;;-3.80;83.90;;;;;;6265379;28;20929;-77
2024/01/11 07:18:36;;;;;;;39.80;17.53;;;-3.60;83.90;;;;;;6264937;28;20253;-77
2024/01/11 07:21:39;;;;;;;39.07;18.40;;;-3.60;84.10;;;;;;6269239;28;20238;-78
2024/01/11 07:24:42;;;;;;;51.53;18.80;;;-3.60;84.10;;;;;;6271810;28;20656;-75
2024/01/11 07:27:46;;;;;;;43.03;18.53;;;-3.60;84.10;;;;;;6268730;28;20617;-77
2024/01/11 07:30:50;;;;;;;47.00;19.33;;;-3.60;84.20;;;;;;6277837;28;20245;-76
2024/01/11 07:33:53;;;;;;;43.83;19.13;;;-3.50;84.30;;;;;;6277399;28;20252;-76
2024/01/11 07:36:57;;;;;;;49.87;19.37;;;-3.50;84.30;;;;;;6272572;28;20233;-78
2024/01/11 07:40:00;;;;;;;48.50;20.03;;;-3.50;84.40;;;;;;6270640;28;20848;-78
2024/01/11 07:43:04;;;;;;;39.80;18.60;;;-3.40;84.50;;;;;;6268368;28;20258;-76
2024/01/11 07:46:08;;;;;;;50.90;18.83;;;-3.40;84.50;;;;;;6267661;28;20242;-76
2024/01/11 07:49:11;;;;;;;39.03;18.50;;;-3.40;84.60;;;;;;6264041;28;20722;-77
2024/01/11 07:52:14;;;;;;;39.97;18.27;;;-3.30;84.60;;;;;;6268381;28;20237;-77
2024/01/11 07:55:23;;;;;;;39.47;17.63;;;-3.30;84.60;;;;;;6267841;28;20234;-75
2024/01/11 07:58:26;;;;;;;48.70;19.17;;;-3.20;84.60;;;;;;6268687;28;20961;-77
2024/01/11 08:01:31;;;;;;;48.30;20.27;;;-3.20;84.60;;;;;;6266141;28;20242;-77
2024/01/11 08:04:34;;;;;;;54.77;20.00;;;-3.20;84.60;;;;;;6257888;28;20247;-74
2024/01/11 08:07:37;;;;;;;43.80;20.13;;;-3.20;84.70;;;;;;6275327;28;20237;-75
2024/01/11 08:10:40;;;;;;;44.73;17.57;;;-3.20;84.60;;;;;;6265998;28;20271;-76
2024/01/11 08:13:43;;;;;;;38.47;18.00;;;-3.10;84.60;;;;;;6264131;28;20376;-76
2024/01/11 08:16:47;;;;;;;45.93;18.57;;;-3.10;84.40;;;;;;6265495;28;20645;-75
2024/01/11 08:19:50;;;;;;;42.77;18.00;;;-3.00;84.00;;;;;;6259308;28;20243;-76
2024/01/11 08:22:54;;;;;;;42.77;19.17;;;-3.00;83.90;;;;;;6266484;28;20241;-75
2024/01/11 08:25:57;;;;;;;37.93;18.07;;;-3.10;83.90;;;;;;6259796;28;21409;-77
2024/01/11 08:29:00;;;;;;;47.77;20.20;;;-3.10;84.00;;;;;;6263586;28;20344;-78
2024/01/11 08:32:06;;;;;;;42.20;19.13;;;-3.10;84.00;;;;;;6264998;28;20237;-76
2024/01/11 08:35:27;;;;;;;41.03;18.13;;;-3.00;84.10;;;;;;6263908;28;20785;-77
2024/01/11 08:38:31;;;;;;;43.17;19.57;;;-3.00;84.00;;;;;;6266124;28;20244;-76
2024/01/11 08:41:37;;;;;;;51.50;20.00;;;-2.90;83.90;;;;;;6263699;28;20969;-75
2024/01/11 08:44:42;;;;;;;42.83;20.03;;;-2.80;83.50;;;;;;6263597;28;20328;-74
2024/01/11 08:47:47;;;;;;;45.93;19.90;;;-2.90;83.30;;;;;;6261450;28;20867;-78
2024/01/11 08:50:51;;;;;;;42.30;19.07;;;-2.90;83.30;;;;;;6262120;28;20367;-76
2024/01/11 08:53:54;;;;;;;44.33;18.23;;;-2.90;83.00;;;;;;6224599;28;20234;-78
2024/01/11 08:56:58;;;;;;;36.87;18.57;;;-3.00;83.30;;;;;;6209631;28;20230;-77
2024/01/11 09:00:01;;;;;;;42.40;18.20;;;-3.00;83.40;;;;;;6217474;28;20261;-79
2024/01/11 09:03:06;;;;;;;42.90;20.60;;;-2.90;83.40;;;;;;6216402;28;20385;-78
2024/01/11 09:06:09;;;;;;;40.70;19.13;;;-3.00;83.30;;;;;;6206124;28;20396;-75
2024/01/11 09:09:13;;;;;;;44.07;20.27;;;-3.10;83.50;;;;;;6217950;28;20277;-75
2024/01/11 09:12:16;;;;;;;38.63;19.03;;;-3.00;83.90;;;;;;6213668;28;20249;-79
2024/01/11 09:15:20;;;;;;;42.37;20.27;;;-2.90;83.70;;;;;;6217001;28;20243;-75
2024/01/11 09:18:25;;;;;;;42.17;18.93;;;-2.80;83.70;;;;;;6212573;28;20743;-79
2024/01/11 09:21:28;;;;;;;43.03;19.37;;;-2.70;83.40;;;;;;6216838;28;20649;-76
2024/01/11 09:24:32;;;;;;;43.93;19.60;;;-2.60;83.10;;;;;;6216115;28;20243;-75
2024/01/11 09:27:40;;;;;;;35.43;18.60;;;-2.60;83.00;;;;;;6218342;28;20250;-78
2024/01/11 09:30:43;;;;;;;42.47;20.43;;;-2.50;83.00;;;;;;6221415;28;20242;-77
2024/01/11 09:33:49;;;;;;;43.17;19.63;;;-2.60;83.00;;;;;;6224976;28;20714;-76
2024/01/11 09:36:53;;;;;;;45.73;21.00;;;-2.60;83.20;;;;;;6222374;28;20288;-75
2024/01/11 09:39:56;;;;;;;43.97;20.73;;;-2.60;83.30;;;;;;6221639;28;20235;-75
2024/01/11 09:42:59;;;;;;;40.03;20.03;;;-2.50;83.30;;;;;;6246824;28;20768;-75
2024/01/11 09:46:05;;;;;;;41.20;20.87;;;-2.50;83.10;;;;;;6243448;28;20242;-78
2024/01/11 09:49:12;;;;;;;49.10;20.87;;;-2.50;82.90;;;;;;6244777;28;20335;-78
2024/01/11 09:52:17;;;;;;;39.47;19.90;;;-2.60;83.00;;;;;;6245694;28;20242;-75
2024/01/11 09:55:20;;;;;;;45.93;20.80;;;-2.60;83.20;;;;;;6240559;28;20327;-76
2024/01/11 09:58:24;;;;;;;42.03;20.47;;;-2.60;83.30;;;;;;6241060;28;20321;-74
2024/01/11 10:01:27;;;;;;;46.83;20.93;;;-2.50;83.50;;;;;;6223878;28;20246;-78
2024/01/11 10:04:31;;;;;;;39.43;20.23;;;-2.50;83.50;;;;;;6223231;28;20637;-78
2024/01/11 10:07:35;;;;;;;39.83;19.13;;;-2.40;83.60;;;;;;6219654;28;20231;-77
2024/01/11 10:10:38;;;;;;;42.40;20.73;;;-2.40;83.50;;;;;;6219147;28;20238;-76
2024/01/11 10:13:43;;;;;;;38.37;19.70;;;-2.40;83.70;;;;;;6221391;28;20249;-75
2024/01/11 10:16:46;;;;;;;41.57;20.80;;;-2.40;83.80;;;;;;6218594;28;20262;-77
2024/01/11 10:19:51;;;;;;;35.20;19.33;;;-2.30;83.50;;;;;;6220970;28;20782;-74
2024/01/11 10:22:55;;;;;;;38.63;19.63;;;-2.30;83.40;;;;;;6219278;28;20382;-75
2024/01/11 10:25:58;;;;;;;36.27;19.40;;;-2.20;83.30;;;;;;6221498;28;20251;-76
2024/01/11 10:29:02;;;;;;;42.77;20.57;;;-2.20;83.20;;;;;;6268190;28;20249;-76
2024/01/11 10:32:06;;;;;;;40.23;21.00;;;-2.20;82.80;;;;;;6243878;28;20707;-77
2024/01/11 10:35:11;;;;;;;44.10;20.83;;;-2.10;82.60;;;;;;6228655;28;20234;-75
2024/01/11 10:38:17;;;;;;;39.07;19.47;;;-2.20;82.40;;;;;;6217804;28;20727;-76
2024/01/11 10:41:21;;;;;;;44.37;20.80;;;-2.30;82.70;;;;;;6218272;28;20735;-77
2024/01/11 10:44:28;;;;;;;32.63;19.33;;;-2.20;82.30;;;;;;6222576;28;20250;-75
2024/01/11 10:47:32;;;;;;;45.77;22.07;;;-2.20;82.40;;;;;;6220145;28;20241;-77
2024/01/11 10:50:39;;;;;;;36.57;20.57;;;-2.10;82.00;;;;;;6218543;28;20726;-76
2024/01/11 10:53:59;;;;;;;43.50;21.13;;;-2.10;82.00;;;;;;6210539;28;21011;-76
2024/01/11 10:57:07;;;;;;;42.63;22.87;;;-2.10;82.20;;;;;;6238947;28;20628;-75
2024/01/11 11:00:12;;;;;;;44.87;21.30;;;-2.20;82.40;;;;;;6271121;28;20234;-77
2024/01/11 11:03:17;;;;;;;39.27;20.53;;;-2.10;82.40;;;;;;6268513;28;20233;-76
2024/01/11 11:06:23;;;;;;;48.00;22.87;;;-2.10;82.50;;;;;;6266433;28;20735;-75
2024/01/11 11:09:27;;;;;;;43.37;21.17;;;-2.00;82.40;;;;;;6268921;28;20838;-75
2024/01/11 11:12:34;;;;;;;41.57;21.50;;;-2.00;82.00;;;;;;6267538;28;20250;-76
2024/01/11 11:15:37;;;;;;;42.93;21.03;;;-2.10;81.90;;;;;;6266205;28;20251;-77
2024/01/11 11:18:41;;;;;;;44.43;21.93;;;-1.90;81.60;;;;;;6266110;28;20233;-76
2024/01/11 11:22:14;;;;;;;41.03;19.77;;;-2.10;81.30;;;;;;6266521;28;20240;-76
2024/01/11 11:25:26;;;;;;;46.97;22.83;;;-2.10;81.90;;;;;;6267888;28;20324;-77
2024/01/11 11:28:30;;;;;;;44.53;22.97;;;-2.10;82.10;;;;;;6264883;28;20237;-77
2024/01/11 11:31:37;;;;;;;44.90;21.00;;;-2.10;81.90;;;;;;6267556;28;20242;-75
2024/01/11 11:34:44;;;;;;;47.03;22.43;;;-2.10;82.00;;;;;;6267195;28;20242;-78
2024/01/11 11:37:50;;;;;;;39.83;21.50;;;-2.10;82.20;;;;;;6265580;28;20778;-76
2024/01/11 11:40:54;;;;;;;37.90;20.57;;;-2.10;82.50;;;;;;6252479;28;20300;-77
2024/01/11 11:44:02;;;;;;;33.97;18.30;;;-2.00;82.70;;;;;;6266149;28;20718;-77
2024/01/11 11:47:22;;;;;;;36.20;18.83;;;-1.90;83.00;;;;;;6267858;28;20237;-76
2024/01/11 11:50:26;;;;;;;34.30;19.23;;;-1.80;83.20;;;;;;6266223;28;20238;-76
2024/01/11 11:53:34;;;;;;;34.73;18.80;;;-1.80;83.00;;;;;;6267069;28;20242;-76
2024/01/11 11:56:38;;;;;;;31.40;17.67;;;-1.70;83.20;;;;;;6267386;28;20618;-76
2024/01/11 11:59:43;;;;;;;32.60;18.70;;;-1.60;83.10;;;;;;6265695;28;20240;-76
2024/01/11 12:02:48;;;;;;;33.30;18.27;;;-1.60;83.30;;;;;;6267574;28;20249;-78
2024/01/11 12:05:51;;;;;;;28.33;16.97;;;-1.60;83.40;;;;;;6253463;28;20242;-76
2024/01/11 12:08:56;;;;;;;32.57;19.27;;;-1.50;83.40;;;;;;6266924;28;20238;-77
2024/01/11 12:12:01;;;;;;;32.00;18.97;;;-1.50;83.40;;;;;;6265256;28;20242;-76
2024/01/11 12:15:18;;;;;;;29.77;18.10;;;-1.40;83.40;;;;;;6267669;28;20231;-79
2024/01/11 12:18:21;;;;;;;31.00;17.80;;;-1.30;83.10;;;;;;6265015;28;21022;-77
2024/01/11 12:21:26;;;;;;;34.70;20.20;;;-1.30;83.20;;;;;;6266643;28;20279;-76
2024/01/11 12:24:31;;;;;;;29.97;18.87;;;-1.30;83.20;;;;;;6266852;28;20298;-77
2024/01/11 12:27:34;;;;;;;30.57;18.23;;;-1.30;83.20;;;;;;6261704;28;20241;-77
2024/01/11 12:30:37;;;;;;;32.70;18.60;;;-1.30;83.20;;;;;;6266488;28;20327;-75
2024/01/11 12:33:41;;;;;;;30.87;17.97;;;-1.20;83.20;;;;;;6258198;28;20777;-75
2024/01/11 12:36:45;;;;;;;31.30;18.33;;;-1.20;83.10;;;;;;6266560;28;20292;-76
2024/01/11 12:39:50;;;;;;;30.87;17.57;;;-1.10;83.20;;;;;;6264415;28;20371;-77
2024/01/11 12:42:54;;;;;;;28.57;18.33;;;-1.10;83.20;;;;;;6265642;28;20753;-78
2024/01/11 12:45:58;;;;;;;31.90;18.33;;;-1.10;83.00;;;;;;6264386;28;20244;-76
2024/01/11 12:49:01;;;;;;;30.27;17.80;;;-1.10;82.90;;;;;;6261916;28;20242;-77
2024/01/11 12:52:05;;;;;;;30.50;17.93;;;-1.10;83.00;;;;;;6269121;28;20638;-77
2024/01/11 12:55:19;;;;;;;30.37;18.00;;;-1.10;82.90;;;;;;6263101;28;20251;-75
2024/01/11 12:58:23;;;;;;;28.80;16.80;;;-1.00;82.90;;;;;;6266988;28;20240;-77
2024/01/11 13:01:27;;;;;;;29.53;18.30;;;-1.00;82.90;;;;;;6264771;28;20648;-77
2024/01/11 13:04:30;;;;;;;29.10;18.93;;;-1.00;83.00;;;;;;6265685;28;20241;-76
2024/01/11 13:07:33;;;;;;;33.23;18.50;;;-0.90;82.90;;;;;;6264650;28;20952;-78
2024/01/11 13:10:38;;;;;;;33.40;18.07;;;-0.90;82.80;;;;;;6265279;28;20260;-77
2024/01/11 13:13:41;;;;;;;33.00;19.20;;;-1.00;83.00;;;;;;6264929;28;20238;-77
2024/01/11 13:16:45;;;;;;;34.30;19.00;;;-1.10;83.30;;;;;;6265141;28;20241;-75
2024/01/11 13:19:49;;;;;;;27.00;17.23;;;-1.00;83.80;;;;;;6267512;28;20928;-77
2024/01/11 13:23:14;;;;;;;30.83;18.03;;;-1.00;83.50;;;;;;6263296;28;20252;-75
2024/01/11 13:26:19;;;;;;;36.50;21.27;;;-1.00;83.30;;;;;;6260501;28;20238;-79
2024/01/11 13:29:24;;;;;;;30.37;17.80;;;-1.00;83.50;;;;;;6264019;28;20244;-77
2024/01/11 13:32:27;;;;;;;30.07;16.97;;;-0.90;83.40;;;;;;6267043;28;20452;-75
2024/01/11 13:35:30;;;;;;;28.67;17.73;;;-0.90;83.30;;;;;;6263728;28;20238;-78
2024/01/11 13:38:33;;;;;;;30.07;17.27;;;-0.90;83.10;;;;;;6264101;28;20264;-77
2024/01/11 13:41:40;;;;;;;27.97;15.83;;;-0.90;83.10;;;;;;6265909;28;20229;-78
2024/01/11 13:44:44;;;;;;;26.63;17.30;;;-1.00;83.30;;;;;;6262769;28;20301;-76
2024/01/11 13:47:47;;;;;;;26.67;16.57;;;-1.00;83.30;;;;;;6265411;28;20242;-77
2024/01/11 13:50:50;;;;;;;30.23;17.40;;;-0.90;83.70;;;;;;6265351;28;20242;-75
2024/01/11 13:53:53;;;;;;;22.80;14.67;;;-1.00;83.40;;;;;;6265353;28;20258;-76
2024/01/11 13:56:58;;;;;;;27.17;16.43;;;-1.00;83.60;;;;;;6216677;28;20258;-75
2024/01/11 14:00:01;;;;;;;24.53;14.57;;;-1.00;83.70;;;;;;6215850;28;20289;-76
2024/01/11 14:03:05;;;;;;;22.93;16.00;;;-1.00;83.70;;;;;;6217136;28;20243;-76
2024/01/11 14:06:09;;;;;;;24.87;14.23;;;-0.90;83.70;;;;;;6217463;28;20274;-76
2024/01/11 14:09:12;;;;;;;21.63;15.17;;;-0.90;83.50;;;;;;6219497;28;20398;-78
2024/01/11 14:12:17;;;;;;;21.97;14.67;;;-1.00;83.50;;;;;;6220755;28;20270;-76
2024/01/11 14:15:20;;;;;;;20.70;13.37;;;-1.00;83.70;;;;;;6220678;28;20898;-77
2024/01/11 14:18:24;;;;;;;21.90;13.97;;;-0.90;83.60;;;;;;6222171;28;20246;-76
2024/01/11 14:21:29;;;;;;;22.10;13.70;;;-1.00;83.60;;;;;;6221413;28;20243;-77
2024/01/11 14:24:33;;;;;;;24.43;15.23;;;-1.00;83.70;;;;;;6222059;28;20257;-77
2024/01/11 14:27:41;;;;;;;21.17;14.30;;;-0.90;83.80;;;;;;6224895;28;20235;-78
2024/01/11 14:30:44;;;;;;;21.43;13.50;;;-1.00;83.60;;;;;;6222966;28;20799;-75
2024/01/11 14:33:49;;;;;;;21.27;14.13;;;-0.90;83.70;;;;;;6220816;28;20727;-77
2024/01/11 14:36:52;;;;;;;19.77;14.07;;;-0.90;83.30;;;;;;6221410;28;20284;-76
2024/01/11 14:39:55;;;;;;;21.47;14.20;;;-0.90;83.30;;;;;;6220807;28;20347;-77
2024/01/11 14:43:00;;;;;;;22.60;14.80;;;-1.00;83.30;;;;;;6245544;28;20234;-77
2024/01/11 14:46:03;;;;;;;22.77;14.50;;;-1.00;83.50;;;;;;6252600;28;20714;-81
2024/01/11 14:49:08;;;;;;;22.53;14.17;;;-0.90;83.50;;;;;;6268280;28;20388;-76
2024/01/11 14:52:11;;;;;;;23.07;14.90;;;-0.90;83.50;;;;;;6268225;28;20238;-77
2024/01/11 14:55:16;;;;;;;21.43;14.20;;;-1.00;83.60;;;;;;6271437;28;20238;-77
2024/01/11 14:58:21;;;;;;;19.17;13.37;;;-1.00;83.60;;;;;;6269633;28;20229;-78
2024/01/11 15:01:24;;;;;;;18.80;13.23;;;-1.00;83.60;;;;;;6267189;28;20384;-76
2024/01/11 15:04:27;;;;;;;20.80;14.27;;;-1.00;83.80;;;;;;6268130;28;20245;-76
2024/01/11 15:07:30;;;;;;;19.77;13.30;;;-0.90;83.60;;;;;;6266431;28;20249;-77
2024/01/11 15:10:34;;;;;;;21.47;13.47;;;-1.00;83.30;;;;;;6267996;28;20396;-76
2024/01/11 15:13:38;;;;;;;17.13;12.43;;;-1.00;83.50;;;;;;6268323;28;21011;-76
2024/01/11 15:16:44;;;;;;;17.47;12.03;;;-1.00;83.70;;;;;;6267038;28;20360;-75
2024/01/11 15:19:47;;;;;;;17.97;12.67;;;-1.00;84.00;;;;;;6267338;28;20329;-75
2024/01/11 15:22:50;;;;;;;17.60;12.43;;;-1.00;84.00;;;;;;6266431;28;20360;-78
2024/01/11 15:25:54;;;;;;;16.57;12.20;;;-0.90;84.00;;;;;;6262755;28;20237;-75
2024/01/11 15:28:58;;;;;;;18.77;12.17;;;-0.90;84.00;;;;;;6262056;28;20241;-76
2024/01/11 15:32:01;;;;;;;16.23;12.63;;;-1.00;84.00;;;;;;6266799;28;20252;-76
2024/01/11 15:35:07;;;;;;;17.47;12.27;;;-1.00;84.00;;;;;;6264655;28;20252;-77